Dafter, Michigan
Current Conditions -  °F | °C
As of 7:55 AM on Monday 22 Dec 2014 (Local Time) from KCIU Reporting Station
Overcast Overcast  
Wind Chill: 20°   Ceiling: 3800
Heat Index: 30°   Visibility: 7mi
Dew Point: 28°   Wind: 13mph
Humidity: 93%   Direction: 140°SE
Pressure: 30.05"   Gusts: NA
Location:  46.36°N, 84.43°W
Report Text: KCIU 221255Z AUTO 14011KT 7SM OVC038 M01/M02 A3005 RMK AO1
Loading
Personal Weather Stations






























Interactive Weather Map New forecast layout! Learn more

10-Day Weather Forecast

Advertisements
Track Severe Weather on mobile